Time;durP1;ratioP1;P1;durP2;ratioP2;P2;SDS_P1;SDS_P2;PMS_P1;PMS_P2;Temp;Humidity;BMP_temperature;BMP_pressure;BME280_temperature;BME280_humidity;BME280_pressure;Samples;Min_cycle;Max_cycle;Signal;HPM_P1;HPM_P2
2021/06/28 00:02:04;;;;;;;;;;;;;;;21.36;61.58;100758.72;5056975;28;760;-47
2021/06/28 00:04:30;;;;;;;;;;;;;;;21.42;61.39;100751.97;5056623;28;803;-48
2021/06/28 00:06:55;;;;;;;;;;;;;;;21.25;60.80;100751.75;5056672;28;820;-62
2021/06/28 00:09:20;;;;;;;;;;;;;;;20.41;61.64;100754.28;5056589;28;823;-51
2021/06/28 00:11:46;;;;;;;;;;;;;;;20.05;60.54;100757.56;5056868;28;767;-49
2021/06/28 00:14:11;;;;;;;;;;;;;;;20.02;58.93;100754.56;5056580;28;963;-60
2021/06/28 00:16:37;;;;;;;;;;;;;;;20.02;57.23;100755.41;5056286;28;1984;-48
2021/06/28 00:19:03;;;;;;;;;;;;;;;20.09;57.76;100761.38;5056606;28;558;-55
2021/06/28 00:21:29;;;;;;;;;;;;;;;20.67;58.90;100762.97;5037805;28;964;-48
2021/06/28 00:23:54;;;;;;;;;;;;;;;21.13;58.98;100761.34;5055394;28;1159;-47
2021/06/28 00:26:19;;;;;;;;;;;;;;;20.89;58.68;100760.69;5056664;28;804;-51
2021/06/28 00:28:45;;;;;;;;;;;;;;;20.51;58.49;100762.38;5055849;28;963;-48
2021/06/28 00:31:10;;;;;;;;;;;;;;;20.49;56.85;100761.03;5038709;28;1214;-51
2021/06/28 00:33:36;;;;;;;;;;;;;;;20.44;55.94;100759.19;5056367;28;819;-48
2021/06/28 00:36:01;;;;;;;;;;;;;;;20.41;55.02;100762.56;5055663;28;1914;-48
2021/06/28 00:38:27;;;;;;;;;;;;;;;20.33;54.93;100760.47;5056796;28;760;-49
2021/06/28 00:40:52;;;;;;;;;;;;;;;20.49;55.03;100763.81;5056334;28;740;-53
2021/06/28 00:43:18;;;;;;;;;;;;;;;20.55;56.11;100770.06;5055831;28;847;-48
2021/06/28 00:45:43;;;;;;;;;;;;;;;20.49;57.76;100767.38;5055886;28;963;-57
2021/06/28 00:48:10;;;;;;;;;;;;;;;20.79;58.02;100764.44;5056168;28;835;-49
2021/06/28 00:50:36;;;;;;;;;;;;;;;20.94;58.13;100766.13;5056141;28;752;-61
2021/06/28 00:53:05;;;;;;;;;;;;;;;20.92;58.97;100771.16;5056055;28;828;-49
2021/06/28 00:55:31;;;;;;;;;;;;;;;20.93;59.28;100762.56;5056233;28;1967;-61
2021/06/28 00:57:56;;;;;;;;;;;;;;;21.19;58.93;100764.84;5055381;28;808;-50
2021/06/28 01:00:22;;;;;;;;;;;;;;;20.81;60.38;100765.78;5037713;28;1026;-48
2021/06/28 01:02:47;;;;;;;;;;;;;;;20.50;61.39;100768.22;5056134;28;859;-61
2021/06/28 01:05:14;;;;;;;;;;;;;;;20.24;60.62;100756.72;5055514;28;740;-51
2021/06/28 01:07:40;;;;;;;;;;;;;;;20.72;60.97;100762.09;5055976;28;771;-61
2021/06/28 01:10:05;;;;;;;;;;;;;;;21.16;59.75;100755.22;5055987;28;737;-61
2021/06/28 01:12:31;;;;;;;;;;;;;;;20.93;60.36;100745.13;5055725;28;772;-49
2021/06/28 01:14:56;;;;;;;;;;;;;;;21.06;60.08;100751.84;5055506;28;1909;-53
2021/06/28 01:17:22;;;;;;;;;;;;;;;21.04;59.97;100743.81;5055856;28;1022;-49
2021/06/28 01:19:57;;;;;;;;;;;;;;;20.85;60.87;100744.72;5055358;28;776;-48
2021/06/28 01:22:25;;;;;;;;;;;;;;;20.43;62.41;100748.44;5038321;28;808;-56
2021/06/28 01:24:52;;;;;;;;;;;;;;;20.30;61.46;100742.56;5055766;28;1060;-54
2021/06/28 01:27:17;;;;;;;;;;;;;;;20.30;60.42;100741.72;5055481;28;779;-47
2021/06/28 01:29:43;;;;;;;;;;;;;;;20.86;61.84;100759.38;5055596;28;970;-48
2021/06/28 01:32:08;;;;;;;;;;;;;;;20.84;61.87;100756.88;5037914;28;908;-61
2021/06/28 01:34:34;;;;;;;;;;;;;;;21.15;61.03;100750.84;5057276;28;812;-59
2021/06/28 01:36:59;;;;;;;;;;;;;;;;;;5059384;28;1906;-49
2021/06/28 01:39:24;;;;;;;;;;;;;;;20.74;63.04;100759.84;5059560;28;824;-61
2021/06/28 01:41:50;;;;;;;;;;;;;;;20.68;63.64;100758.28;5058807;28;812;-61
2021/06/28 01:44:15;;;;;;;;;;;;;;;20.35;60.95;100750.75;5059345;28;1030;-48
2021/06/28 01:46:41;;;;;;;;;;;;;;;20.29;62.13;100763.00;5059262;28;760;-51
2021/06/28 01:49:06;;;;;;;;;;;;;;;21.18;63.23;100768.72;5058811;28;750;-47
2021/06/28 01:51:32;;;;;;;;;;;;;;;21.15;61.44;100770.19;5059407;28;696;-61
2021/06/28 01:53:57;;;;;;;;;;;;;;;20.94;59.58;100766.13;5059274;28;884;-61
2021/06/28 01:56:22;;;;;;;;;;;;;;;20.75;58.13;100771.69;5058644;28;1933;-48
2021/06/28 01:58:48;;;;;;;;;;;;;;;20.59;56.54;100773.88;5058837;28;1006;-48
2021/06/28 02:01:13;;;;;;;;;;;;;;;20.30;55.92;100766.56;5041226;28;942;-47
2021/06/28 02:03:39;;;;;;;;;;;;;;;20.38;54.68;100765.91;5058564;28;748;-62
2021/06/28 02:06:05;;;;;;;;;;;;;;;20.29;54.92;100765.75;5059577;28;752;-47
2021/06/28 02:08:31;;;;;;;;;;;;;;;20.38;57.39;100765.91;5058961;28;832;-62
2021/06/28 02:10:57;;;;;;;;;;;;;;;20.74;59.26;100765.38;5058548;28;744;-62
2021/06/28 02:13:24;;;;;;;;;;;;;;;20.92;59.78;100760.09;5058907;28;752;-51
2021/06/28 02:15:49;;;;;;;;;;;;;;;20.51;59.74;100765.16;5058430;28;1910;-61
2021/06/28 02:18:15;;;;;;;;;;;;;;;20.06;59.53;100761.94;5040416;28;811;-48
2021/06/28 02:20:40;;;;;;;;;;;;;;;19.82;57.55;100757.31;5058813;28;804;-62
2021/06/28 02:23:21;;;;;;;;;;;;;;;19.87;57.20;100767.47;5058535;28;803;-62
2021/06/28 02:25:47;;;;;;;;;;;;;;;20.12;56.71;100760.78;5058165;28;996;-57
2021/06/28 02:28:12;;;;;;;;;;;;;;;20.73;57.81;100763.72;5058540;28;740;-59
2021/06/28 02:30:38;;;;;;;;;;;;;;;21.02;58.34;100757.16;5058286;28;1014;-48
2021/06/28 02:33:03;;;;;;;;;;;;;;;20.76;58.74;100768.66;5058466;28;795;-50
2021/06/28 02:35:29;;;;;;;;;;;;;;;20.60;58.03;100764.47;5023736;28;1910;-61
2021/06/28 02:37:54;;;;;;;;;;;;;;;20.66;56.56;100766.00;5057995;28;804;-60
2021/06/28 02:40:20;;;;;;;;;;;;;;;20.38;55.90;100776.13;5058394;28;764;-61
2021/06/28 02:42:45;;;;;;;;;;;;;;;20.37;54.95;100777.25;5058631;28;741;-61
2021/06/28 02:45:10;;;;;;;;;;;;;;;20.19;54.68;100779.72;5056836;28;967;-48
2021/06/28 02:47:36;;;;;;;;;;;;;;;20.25;54.99;100778.53;5057910;28;771;-61
2021/06/28 02:50:06;;;;;;;;;;;;;;;20.32;55.85;100775.41;5058377;28;739;-48
2021/06/28 02:52:31;;;;;;;;;;;;;;;20.41;56.84;100770.84;5057949;28;812;-61
2021/06/28 02:54:57;;;;;;;;;;;;;;;20.55;57.50;100779.16;5057781;28;1913;-61
2021/06/28 02:57:22;;;;;;;;;;;;;;;20.68;57.58;100783.16;5057958;28;733;-59
2021/06/28 02:59:47;;;;;;;;;;;;;;;20.71;57.86;100788.09;5057424;28;1026;-52
2021/06/28 03:02:13;;;;;;;;;;;;;;;20.74;58.11;100781.94;5057609;28;745;-47
2021/06/28 03:04:38;;;;;;;;;;;;;;;20.67;58.62;100787.84;5057782;28;784;-60
2021/06/28 03:07:04;;;;;;;;;;;;;;;20.70;58.79;100786.44;5057813;28;784;-56
2021/06/28 03:09:29;;;;;;;;;;;;;;;20.96;58.28;100786.81;5057338;28;728;-43
2021/06/28 03:11:55;;;;;;;;;;;;;;;20.68;59.20;100786.72;5057675;28;768;-63
2021/06/28 03:14:20;;;;;;;;;;;;;;;20.44;60.72;100789.56;5057211;28;888;-48
2021/06/28 03:16:46;;;;;;;;;;;;;;;20.28;60.39;100790.91;5057275;28;1914;-43
2021/06/28 03:19:11;;;;;;;;;;;;;;;20.11;60.93;100786.72;5057276;28;859;-67
2021/06/28 03:21:37;;;;;;;;;;;;;;;20.84;59.75;100803.06;5039818;28;805;-43
2021/06/28 03:24:02;;;;;;;;;;;;;;;20.95;60.23;100803.72;5057326;28;1020;-69
2021/06/28 03:26:28;;;;;;;;;;;;;;;21.23;59.78;100803.78;5056831;28;756;-41
2021/06/28 03:28:53;;;;;;;;;;;;;;;21.43;59.70;100814.44;5057113;28;1022;-47
2021/06/28 03:31:18;;;;;;;;;;;;;;;20.73;62.72;100818.16;5057582;28;523;-59
2021/06/28 03:33:44;;;;;;;;;;;;;;;20.76;63.00;100815.63;5057033;28;729;-61
2021/06/28 03:36:09;;;;;;;;;;;;;;;20.30;61.29;100817.13;5057350;28;1909;-67
2021/06/28 03:38:35;;;;;;;;;;;;;;;20.78;62.07;100832.72;5057248;28;779;-43
2021/06/28 03:41:00;;;;;;;;;;;;;;;21.14;63.26;100828.53;5056767;28;759;-44
2021/06/28 03:43:26;;;;;;;;;;;;;;;21.55;61.58;100824.25;5057262;28;922;-67
2021/06/28 03:45:51;;;;;;;;;;;;;;;21.75;60.79;100832.13;5057002;28;1046;-43
2021/06/28 03:48:17;;;;;;;;;;;;;;;21.09;63.09;100831.41;5056655;28;784;-43
2021/06/28 03:50:42;;;;;;;;;;;;;;;20.98;63.67;100839.03;5056654;28;1489;-63
2021/06/28 03:53:08;;;;;;;;;;;;;;;20.65;63.23;100838.97;5039391;28;1190;-47
2021/06/28 03:55:33;;;;;;;;;;;;;;;20.47;60.51;100824.88;5056451;28;1906;-45
2021/06/28 03:57:59;;;;;;;;;;;;;;;21.16;62.35;100821.56;5056863;28;712;-47
2021/06/28 04:00:24;;;;;;;;;;;;;;;21.42;63.60;100823.91;5050505;28;967;-60
2021/06/28 04:02:51;;;;;;;;;;;;;;;21.78;62.20;100830.69;5056332;28;751;-66
2021/06/28 04:05:21;;;;;;;;;;;;;;;21.82;61.57;100831.72;5057231;28;867;-62
2021/06/28 04:07:47;;;;;;;;;;;;;;;21.15;63.86;100831.00;5038615;28;1183;-62
2021/06/28 04:10:13;;;;;;;;;;;;;;;20.81;65.19;100832.13;5056184;28;744;-46
2021/06/28 04:12:39;;;;;;;;;;;;;;;20.74;63.31;100828.91;5038946;28;1410;-61
2021/06/28 04:15:05;;;;;;;;;;;;;;;20.38;61.22;100832.19;5044119;28;1967;-55
2021/06/28 04:17:31;;;;;;;;;;;;;;;21.29;62.57;100846.81;5036412;28;764;-52
2021/06/28 04:19:56;;;;;;;;;;;;;;;21.68;63.07;100842.78;5036620;28;775;-63
2021/06/28 04:22:22;;;;;;;;;;;;;;;21.58;62.52;100841.03;5036462;28;740;-63
2021/06/28 04:24:47;;;;;;;;;;;;;;;21.87;62.38;100839.94;5036239;28;1199;-63
2021/06/28 04:27:12;;;;;;;;;;;;;;;21.37;64.49;100851.63;5036637;28;753;-56
2021/06/28 04:29:38;;;;;;;;;;;;;;;21.36;65.28;100858.28;5044383;28;966;-48
2021/06/28 04:32:04;;;;;;;;;;;;;;;21.33;62.14;100858.91;5056205;28;799;-45
2021/06/28 04:34:29;;;;;;;;;;;;;;;20.51;58.31;100850.78;5038680;28;1413;-64
2021/06/28 04:36:55;;;;;;;;;;;;;;;20.33;60.02;100854.38;5056694;28;1989;-56
2021/06/28 04:39:20;;;;;;;;;;;;;;;20.34;59.86;100845.78;5056150;28;804;-62
2021/06/28 04:41:45;;;;;;;;;;;;;;;20.06;58.00;100850.28;5056328;28;752;-64
2021/06/28 04:44:11;;;;;;;;;;;;;;;20.26;55.26;100842.84;5055763;28;1103;-46
2021/06/28 04:46:36;;;;;;;;;;;;;;;20.27;53.93;100844.50;5056064;28;864;-46
2021/06/28 04:49:02;;;;;;;;;;;;;;;20.08;54.03;100847.25;5056651;28;787;-66
2021/06/28 04:51:27;;;;;;;;;;;;;;;20.42;55.25;100857.28;5055996;28;875;-45
2021/06/28 04:53:53;;;;;;;;;;;;;;;20.69;58.12;100853.84;5055927;28;878;-48
2021/06/28 04:56:18;;;;;;;;;;;;;;;20.88;59.98;100866.84;5056161;28;1914;-46
2021/06/28 04:58:44;;;;;;;;;;;;;;;21.19;60.90;100867.16;5055938;28;967;-47
2021/06/28 05:01:09;;;;;;;;;;;;;;;21.32;61.47;100865.56;5055671;28;740;-46
2021/06/28 05:03:34;;;;;;;;;;;;;;;20.99;63.88;100865.56;5055964;28;768;-49
2021/06/28 05:06:00;;;;;;;;;;;;;;;21.01;64.07;100863.31;5056432;28;784;-48
2021/06/28 05:08:25;;;;;;;;;;;;;;;20.84;61.49;100859.16;5038118;28;903;-50
2021/06/28 05:10:51;;;;;;;;;;;;;;;20.87;60.06;100856.91;5060144;28;740;-60
2021/06/28 05:13:16;;;;;;;;;;;;;;;21.49;62.09;100857.50;5060393;28;788;-51
2021/06/28 05:15:41;;;;;;;;;;;;;;;21.69;63.17;100861.84;5059623;28;1989;-59
2021/06/28 05:18:07;;;;;;;;;;;;;;;21.41;61.73;100874.00;5060058;28;768;-52
2021/06/28 05:20:32;;;;;;;;;;;;;;;21.46;58.53;100883.03;5042043;28;1266;-52
2021/06/28 05:22:58;;;;;;;;;;;;;;;20.88;57.46;100888.97;5059511;28;744;-53
2021/06/28 05:25:23;;;;;;;;;;;;;;;20.72;55.66;100891.97;5059613;28;1163;-46
2021/06/28 05:27:49;;;;;;;;;;;;;;;20.49;54.94;100886.16;5059854;28;768;-46
2021/06/28 05:30:16;;;;;;;;;;;;;;;20.43;55.06;100887.34;5059731;28;1034;-46
2021/06/28 05:32:41;;;;;;;;;;;;;;;20.61;55.26;100882.16;5059273;28;844;-45
2021/06/28 05:35:07;;;;;;;;;;;;;;;20.67;56.24;100892.00;5059596;28;1918;-61
2021/06/28 05:37:32;;;;;;;;;;;;;;;20.87;56.93;100893.66;5059395;28;799;-46
2021/06/28 05:39:58;;;;;;;;;;;;;;;21.07;57.22;100889.78;5059460;28;712;-48
2021/06/28 05:42:23;;;;;;;;;;;;;;;21.22;57.39;100896.97;5059354;28;765;-48
2021/06/28 05:44:49;;;;;;;;;;;;;;;21.16;58.09;100892.66;5058937;28;1014;-46
2021/06/28 05:47:16;;;;;;;;;;;;;;;21.10;58.92;100900.22;5059242;28;851;-47
2021/06/28 05:49:43;;;;;;;;;;;;;;;21.20;58.51;100890.94;5059572;28;867;-46
2021/06/28 05:52:09;;;;;;;;;;;;;;;20.80;59.51;100896.81;5059312;28;791;-58
2021/06/28 05:54:35;;;;;;;;;;;;;;;20.57;60.83;100900.44;5059096;28;824;-62
2021/06/28 05:57:00;;;;;;;;;;;;;;;20.49;60.70;100899.16;5059558;28;1914;-61
2021/06/28 05:59:26;;;;;;;;;;;;;;;20.95;60.03;100897.69;5059156;28;1034;-59
2021/06/28 06:01:51;;;;;;;;;;;;;;;21.17;59.35;100894.31;5058507;28;772;-49
2021/06/28 06:04:17;;;;;;;;;;;;;;;21.16;59.41;100896.22;5059118;28;819;-61
2021/06/28 06:06:42;;;;;;;;;;;;;;;21.18;59.62;100894.00;5059081;28;788;-46
2021/06/28 06:09:08;;;;;;;;;;;;;;;21.10;60.00;100899.41;5058911;28;803;-61
2021/06/28 06:11:33;;;;;;;;;;;;;;;20.92;60.95;100896.34;5059145;28;736;-47
2021/06/28 06:13:59;;;;;;;;;;;;;;;20.84;61.62;100892.31;5058836;28;1033;-60
2021/06/28 06:16:25;;;;;;;;;;;;;;;20.67;59.71;100897.53;5058519;28;1901;-46
2021/06/28 06:18:50;;;;;;;;;;;;;;;20.45;61.10;100896.16;5058929;28;739;-43
2021/06/28 06:21:16;;;;;;;;;;;;;;;20.95;62.12;100906.00;5057279;28;836;-48
2021/06/28 06:23:41;;;;;;;;;;;;;;;21.18;61.06;100907.84;5058269;28;1028;-47
2021/06/28 06:26:07;;;;;;;;;;;;;;;21.36;60.39;100908.06;5058808;28;859;-47
2021/06/28 06:28:32;;;;;;;;;;;;;;;21.43;60.09;100907.69;5058539;28;804;-47
2021/06/28 06:30:58;;;;;;;;;;;;;;;21.01;61.08;100896.47;5058014;28;959;-47
2021/06/28 06:33:23;;;;;;;;;;;;;;;20.66;62.80;100906.94;5058360;28;783;-52
2021/06/28 06:35:49;;;;;;;;;;;;;;;20.62;60.59;100905.88;5058711;28;1977;-47
2021/06/28 06:38:14;;;;;;;;;;;;;;;21.15;61.54;100913.97;5058506;28;745;-58
2021/06/28 06:40:40;;;;;;;;;;;;;;;21.26;61.11;100908.25;5058570;28;784;-47
2021/06/28 06:43:05;;;;;;;;;;;;;;;21.25;60.92;100907.44;5040191;28;748;-46
2021/06/28 06:45:33;;;;;;;;;;;;;;;21.20;60.95;100910.28;5057729;28;959;-46
2021/06/28 06:47:59;;;;;;;;;;;;;;;20.78;62.32;100921.16;5058376;28;752;-50
2021/06/28 06:50:24;;;;;;;;;;;;;;;20.81;61.29;100919.75;5058161;28;721;-45
2021/06/28 06:52:50;;;;;;;;;;;;;;;20.83;61.95;100920.25;5057713;28;764;-64
2021/06/28 06:55:16;;;;;;;;;;;;;;;21.18;61.65;100923.59;5058190;28;1971;-48
2021/06/28 06:57:41;;;;;;;;;;;;;;;21.40;60.60;100922.94;5058033;28;752;-47
2021/06/28 07:00:08;;;;;;;;;;;;;;;21.27;61.04;100926.50;5057515;28;1018;-47
2021/06/28 07:02:33;;;;;;;;;;;;;;;21.09;61.64;100931.75;5057770;28;792;-46
2021/06/28 07:04:59;;;;;;;;;;;;;;;20.83;62.77;100928.53;5058038;28;732;-45
2021/06/28 07:07:24;;;;;;;;;;;;;;;20.56;61.39;100935.53;5057667;28;764;-46
2021/06/28 07:09:50;;;;;;;;;;;;;;;21.18;61.99;100935.47;5057899;28;776;-47
2021/06/28 07:12:15;;;;;;;;;;;;;;;21.37;61.30;100932.66;5057563;28;784;-51
2021/06/28 07:14:41;;;;;;;;;;;;;;;21.59;60.80;100928.47;5057164;28;1011;-46
2021/06/28 07:17:07;;;;;;;;;;;;;;;21.26;61.63;100933.16;5057679;28;1923;-49
2021/06/28 07:19:32;;;;;;;;;;;;;;;21.14;62.11;100931.69;5057992;28;776;-47
2021/06/28 07:21:57;;;;;;;;;;;;;;;20.84;61.79;100931.00;5057281;28;800;-49
2021/06/28 07:24:23;;;;;;;;;;;;;;;20.67;59.93;100938.97;5057331;28;1020;-50
2021/06/28 07:26:48;;;;;;;;;;;;;;;21.41;61.39;100929.31;5057627;28;764;-51
2021/06/28 07:29:14;;;;;;;;;;;;;;;21.70;61.19;100940.19;5056918;28;1073;-47
2021/06/28 07:31:40;;;;;;;;;;;;;;;21.88;60.32;100935.66;5057058;28;748;-46
2021/06/28 07:34:06;;;;;;;;;;;;;;;21.65;60.69;100929.19;5057161;28;780;-46
2021/06/28 07:36:31;;;;;;;;;;;;;;;21.37;61.43;100927.13;5057333;28;1909;-61
2021/06/28 07:39:02;;;;;;;;;;;;;;;20.97;62.13;100934.16;5057588;28;791;-50
2021/06/28 07:41:27;;;;;;;;;;;;;;;20.70;59.77;100935.63;5057330;28;807;-52
2021/06/28 07:43:53;;;;;;;;;;;;;;;21.45;61.63;100936.69;5038278;28;1034;-45
2021/06/28 07:46:18;;;;;;;;;;;;;;;21.81;60.87;100936.09;5057036;28;835;-44
2021/06/28 07:48:44;;;;;;;;;;;;;;;21.65;61.20;100943.03;5057317;28;791;-47
2021/06/28 07:51:10;;;;;;;;;;;;;;;21.40;61.27;100938.72;5056823;28;763;-47
2021/06/28 07:53:35;;;;;;;;;;;;;;;21.27;62.60;100948.63;5056935;28;1017;-45
2021/06/28 07:56:14;;;;;;;;;;;;;;;20.87;61.84;100951.69;5057104;28;1905;-69
2021/06/28 07:58:41;;;;;;;;;;;;;;;20.66;59.88;100951.13;5056543;28;1007;-70
2021/06/28 08:01:06;;;;;;;;;;;;;;;21.45;61.77;100949.72;5056907;28;760;-50
2021/06/28 08:03:32;;;;;;;;;;;;;;;21.70;61.92;100951.25;5038812;28;847;-44
2021/06/28 08:05:57;;;;;;;;;;;;;;;21.93;60.61;100951.38;5056591;28;784;-45
2021/06/28 08:08:22;;;;;;;;;;;;;;;21.77;60.92;100948.91;5056739;28;871;-44
2021/06/28 08:10:48;;;;;;;;;;;;;;;21.03;63.30;100952.31;5056866;28;835;-66
2021/06/28 08:13:14;;;;;;;;;;;;;;;21.10;63.49;100950.00;5056193;28;962;-47
2021/06/28 08:15:39;;;;;;;;;;;;;;;20.82;60.91;100947.06;5056213;28;1990;-52
2021/06/28 08:18:05;;;;;;;;;;;;;;;20.57;60.28;100947.41;5056758;28;803;-55
2021/06/28 08:20:34;;;;;;;;;;;;;;;21.30;62.01;100946.06;5056644;28;751;-54
2021/06/28 08:22:59;;;;;;;;;;;;;;;21.61;62.54;100953.88;5056376;28;815;-48
2021/06/28 08:25:25;;;;;;;;;;;;;;;21.82;61.48;100953.50;5038227;28;1136;-47
2021/06/28 08:27:51;;;;;;;;;;;;;;;21.75;61.34;100951.13;5056205;28;803;-62
2021/06/28 08:30:16;;;;;;;;;;;;;;;21.39;62.44;100945.38;5056463;28;967;-48
2021/06/28 08:32:42;;;;;;;;;;;;;;;21.32;62.83;100954.06;5056513;28;799;-44
2021/06/28 08:35:08;;;;;;;;;;;;;;;21.03;61.18;100961.41;5055838;28;1914;-48
2021/06/28 08:37:33;;;;;;;;;;;;;;;20.75;59.33;100956.84;5038110;28;1257;-44
2021/06/28 08:39:59;;;;;;;;;;;;;;;21.20;61.28;100955.34;5056487;28;747;-46
2021/06/28 08:42:24;;;;;;;;;;;;;;;21.68;62.12;100953.50;5038311;28;752;-47
2021/06/28 08:44:50;;;;;;;;;;;;;;;21.93;61.81;100963.28;5037360;28;968;-44
2021/06/28 08:47:16;;;;;;;;;;;;;;;21.77;62.10;100951.66;5038209;28;893;-46
2021/06/28 08:49:42;;;;;;;;;;;;;;;21.41;62.83;100954.22;5056385;28;736;-46
2021/06/28 08:52:07;;;;;;;;;;;;;;;21.44;62.73;100954.41;5056310;28;791;-47
2021/06/28 08:54:32;;;;;;;;;;;;;;;21.24;62.49;100951.97;5056482;28;744;-48
2021/06/28 08:56:58;;;;;;;;;;;;;;;20.94;59.19;100956.84;5056063;28;1977;-45
2021/06/28 08:59:23;;;;;;;;;;;;;;;21.34;60.50;100960.94;5055716;28;974;-47
2021/06/28 09:01:49;;;;;;;;;;;;;;;21.71;61.84;100963.94;5056180;28;848;-47
2021/06/28 09:04:15;;;;;;;;;;;;;;;21.81;62.31;100974.84;5055898;28;756;-45
2021/06/28 09:06:41;;;;;;;;;;;;;;;22.02;61.31;100957.84;5056233;28;859;-44
2021/06/28 09:09:10;;;;;;;;;;;;;;;21.47;62.21;100953.81;5056404;28;819;-46
2021/06/28 09:11:41;;;;;;;;;;;;;;;21.39;63.12;100962.78;5056168;28;824;-44
2021/06/28 09:14:06;;;;;;;;;;;;;;;21.18;62.40;100963.13;5037278;28;1202;-45
2021/06/28 09:16:32;;;;;;;;;;;;;;;20.76;61.21;100962.09;5056163;28;1915;-63
2021/06/28 09:18:57;;;;;;;;;;;;;;;21.29;61.83;100968.50;5056160;28;847;-46
2021/06/28 09:21:29;;;;;;;;;;;;;;;21.71;62.23;100975.00;5055768;28;819;-48
2021/06/28 09:23:55;;;;;;;;;;;;;;;21.91;61.22;100971.06;5055741;28;1072;-43
2021/06/28 09:26:25;;;;;;;;;;;;;;;21.84;60.94;100971.47;5055798;28;863;-61
2021/06/28 09:28:53;;;;;;;;;;;;;;;21.09;63.55;100975.97;5055426;28;1011;-63
2021/06/28 09:31:31;;;;;;;;;;;;;;;21.13;63.66;100974.25;5055847;28;530;-44
2021/06/28 09:34:03;;;;;;;;;;;;;;;20.86;61.11;100969.44;5055936;28;724;-62
2021/06/28 09:36:28;;;;;;;;;;;;;;;20.99;62.15;100967.84;5055336;28;1969;-64
2021/06/28 09:38:53;;;;;;;;;;;;;;;21.35;62.81;100976.41;5055245;28;1367;-45
2021/06/28 09:41:30;;;;;;;;;;;;;;;21.61;61.53;100970.47;5056177;28;807;-44
2021/06/28 09:44:02;;;;;;;;;;;;;;;21.67;60.99;100963.75;5053111;28;833;-43
2021/06/28 09:46:28;;;;;;;;;;;;;;;21.23;61.67;100953.13;5034471;28;741;-48
2021/06/28 09:48:53;;;;;;;;;;;;;;;20.90;62.96;100964.94;5049935;28;741;-46
2021/06/28 09:51:23;;;;;;;;;;;;;;;20.63;60.64;100962.78;5055650;28;835;-46
2021/06/28 09:54:15;;;;;;;;;;;;;;;21.43;61.87;100963.81;5055898;28;760;-62
2021/06/28 09:56:46;;;;;;;;;;;;;;;21.90;60.42;100961.13;5049736;28;1993;-64
2021/06/28 09:59:32;;;;;;;;;;;;;;;21.83;60.42;100963.47;5054492;28;1086;-67
2021/06/28 10:02:18;;;;;;;;;;;;;;;21.65;60.81;100965.97;5051707;28;1306;-45
2021/06/28 10:05:18;;;;;;;;;;;;;;;21.33;61.53;100958.47;5058911;28;776;-48
2021/06/28 10:07:44;;;;;;;;;;;;;;;20.56;62.42;100956.81;5058933;28;855;-44
2021/06/28 10:10:12;;;;;;;;;;;;;;;21.02;61.46;100958.97;5059168;28;739;-66
2021/06/28 10:12:38;;;;;;;;;;;;;;;21.24;62.74;100949.22;5058654;28;851;-63
2021/06/28 10:15:07;;;;;;;;;;;;;;;21.89;60.66;100959.47;5046581;28;1037;-47
2021/06/28 10:17:33;;;;;;;;;;;;;;;21.84;60.52;100963.16;5039660;28;784;-44
2021/06/28 10:19:58;;;;;;;;;;;;;;;21.22;61.96;100963.34;5038658;28;807;-44
2021/06/28 10:22:24;;;;;;;;;;;;;;;20.92;63.29;100970.16;5038684;28;930;-43
2021/06/28 10:24:50;;;;;;;;;;;;;;;20.77;60.82;100963.72;5037552;28;1053;-63
2021/06/28 10:27:15;;;;;;;;;;;;;;;20.87;61.99;100945.38;5038311;28;772;-42
2021/06/28 10:29:41;;;;;;;;;;;;;;;21.56;62.03;100933.78;5047054;28;1030;-43
2021/06/28 10:32:07;;;;;;;;;;;;;;;21.72;61.38;100942.63;5040869;28;752;-44
2021/06/28 10:34:33;;;;;;;;;;;;;;;21.77;61.15;100942.53;5058326;28;772;-45
2021/06/28 10:37:00;;;;;;;;;;;;;;;21.86;60.59;100927.69;5040452;28;1918;-44
2021/06/28 10:39:26;;;;;;;;;;;;;;;21.18;62.31;100918.88;5058611;28;803;-44
2021/06/28 10:41:55;;;;;;;;;;;;;;;20.81;63.25;100906.72;5058101;28;804;-61
2021/06/28 10:44:21;;;;;;;;;;;;;;;20.58;60.38;100908.44;5058185;28;991;-45
2021/06/28 10:46:47;;;;;;;;;;;;;;;21.23;62.02;100937.34;5041391;28;721;-45
2021/06/28 10:49:13;;;;;;;;;;;;;;;21.74;61.58;100952.28;5058033;28;854;-44
2021/06/28 10:51:41;;;;;;;;;;;;;;;21.82;60.80;100970.94;5058388;28;784;-60
2021/06/28 10:54:07;;;;;;;;;;;;;;;21.83;60.64;100972.59;5058256;28;752;-43
2021/06/28 10:56:33;;;;;;;;;;;;;;;21.01;62.68;100982.19;5057790;28;1984;-57
2021/06/28 10:59:02;;;;;;;;;;;;;;;21.01;63.20;100982.19;5057856;28;955;-43
2021/06/28 11:01:45;;;;;;;;;;;;;;;20.91;59.78;100991.44;5058523;28;752;-42
2021/06/28 11:04:11;;;;;;;;;;;;;;;21.30;61.67;100995.84;5057660;28;725;-44
2021/06/28 11:06:37;;;;;;;;;;;;;;;21.51;62.00;100982.50;5057069;28;729;-50
2021/06/28 11:09:09;;;;;;;;;;;;;;;21.83;60.83;100989.19;5057964;28;800;-49
2021/06/28 11:11:46;;;;;;;;;;;;;;;21.76;60.80;100993.50;5057574;28;784;-43
2021/06/28 11:14:18;;;;;;;;;;;;;;;21.47;61.28;100989.75;5057660;28;955;-42
2021/06/28 11:17:07;;;;;;;;;;;;;;;21.16;62.39;100990.25;5057645;28;1913;-42
2021/06/28 11:20:04;;;;;;;;;;;;;;;20.82;60.83;100984.97;5057591;28;776;-42
2021/06/28 11:22:44;;;;;;;;;;;;;;;21.37;62.15;100984.41;5057709;28;743;-42
2021/06/28 11:25:10;;;;;;;;;;;;;;;21.57;61.76;100988.81;5057287;28;1060;-43
2021/06/28 11:27:36;;;;;;;;;;;;;;;21.53;61.49;100974.78;5057305;28;875;-42
2021/06/28 11:30:02;;;;;;;;;;;;;;;21.61;61.32;100976.00;5057422;28;951;-42
2021/06/28 11:32:28;;;;;;;;;;;;;;;21.72;60.71;100970.31;5057547;28;792;-42
2021/06/28 11:34:57;;;;;;;;;;;;;;;21.37;61.50;100974.16;5057098;28;504;-42
2021/06/28 11:37:22;;;;;;;;;;;;;;;21.12;62.65;100978.16;5039187;28;1918;-42
2021/06/28 11:40:02;;;;;;;;;;;;;;;20.95;59.74;100969.56;5057330;28;498;-42
2021/06/28 11:42:38;;;;;;;;;;;;;;;21.20;61.29;100960.06;5039536;28;835;-42
2021/06/28 11:45:08;;;;;;;;;;;;;;;21.36;62.51;100958.72;5057668;28;963;-42
2021/06/28 11:47:49;;;;;;;;;;;;;;;21.44;62.14;100973.78;5056531;28;765;-42
2021/06/28 11:50:23;;;;;;;;;;;;;;;21.58;61.56;100986.88;5057234;28;792;-42
2021/06/28 11:52:49;;;;;;;;;;;;;;;21.05;62.89;100997.06;5057104;28;855;-41
2021/06/28 11:55:15;;;;;;;;;;;;;;;20.70;63.67;100988.13;5038056;28;1910;-42
2021/06/28 11:57:40;;;;;;;;;;;;;;;20.93;62.12;100977.31;5039313;28;764;-42
2021/06/28 12:00:09;;;;;;;;;;;;;;;21.61;61.43;100962.19;5056818;28;974;-42
2021/06/28 12:02:34;;;;;;;;;;;;;;;21.76;60.51;100950.03;5056410;28;772;-42
2021/06/28 12:05:00;;;;;;;;;;;;;;;21.94;59.87;100961.34;5056982;28;740;-42
2021/06/28 12:07:26;;;;;;;;;;;;;;;21.01;62.09;100969.22;5056809;28;780;-42
2021/06/28 12:09:52;;;;;;;;;;;;;;;20.92;62.66;100989.53;5056538;28;749;-42
2021/06/28 12:12:17;;;;;;;;;;;;;;;20.75;60.44;100984.47;5057080;28;796;-42
2021/06/28 12:14:43;;;;;;;;;;;;;;;21.31;61.84;100980.91;5056447;28;1018;-43
2021/06/28 12:17:08;;;;;;;;;;;;;;;21.62;60.92;100993.44;5056136;28;1977;-42
2021/06/28 12:19:34;;;;;;;;;;;;;;;21.80;60.01;100998.13;5022706;28;868;-41
2021/06/28 12:22:06;;;;;;;;;;;;;;;21.69;60.38;100996.66;5056565;28;692;-43
2021/06/28 12:24:31;;;;;;;;;;;;;;;21.11;61.58;100984.81;5056124;28;1175;-43
2021/06/28 12:27:04;;;;;;;;;;;;;;;20.97;62.37;100975.59;5056676;28;799;-43
2021/06/28 12:29:31;;;;;;;;;;;;;;;20.60;60.39;100977.19;5056063;28;1097;-45
2021/06/28 12:32:10;;;;;;;;;;;;;;;21.19;61.82;100980.53;5056179;28;757;-44
2021/06/28 12:34:35;;;;;;;;;;;;;;;21.68;60.39;100992.22;5038812;28;1266;-64
2021/06/28 12:37:01;;;;;;;;;;;;;;;21.82;59.78;100982.00;5055825;28;1976;-59
2021/06/28 12:39:27;;;;;;;;;;;;;;;21.53;60.40;101002.44;5055998;28;848;-46
2021/06/28 12:41:52;;;;;;;;;;;;;;;21.35;60.59;101017.09;5056981;28;791;-44
2021/06/28 12:44:18;;;;;;;;;;;;;;;21.01;62.12;101015.34;5034806;28;837;-47
2021/06/28 12:46:45;;;;;;;;;;;;;;;20.92;60.91;101000.56;5036177;28;819;-49
2021/06/28 12:49:10;;;;;;;;;;;;;;;20.49;61.27;100993.06;5017959;28;870;-46
2021/06/28 12:51:35;;;;;;;;;;;;;;;21.29;61.87;101002.50;5049245;28;1042;-43
2021/06/28 12:54:01;;;;;;;;;;;;;;;21.58;60.50;101001.53;5056074;28;768;-45